sensor_id;sensor_type;location;lat;lon;timestamp;P1;durP1;ratioP1;P2;durP2;ratioP2
46753;SDS011;32500;50.620;3.400;2022-11-15T00:01:25;76.45;;;53.30;;
46753;SDS011;32500;50.620;3.400;2022-11-15T00:03:51;76.13;;;53.88;;
46753;SDS011;32500;50.620;3.400;2022-11-15T00:06:16;80.05;;;53.78;;
46753;SDS011;32500;50.620;3.400;2022-11-15T00:08:42;76.13;;;54.20;;
46753;SDS011;32500;50.620;3.400;2022-11-15T00:11:08;75.50;;;53.65;;
46753;SDS011;32500;50.620;3.400;2022-11-15T00:13:36;76.10;;;53.33;;
46753;SDS011;32500;50.620;3.400;2022-11-15T00:16:01;74.60;;;53.40;;
46753;SDS011;32500;50.620;3.400;2022-11-15T00:18:28;73.55;;;53.22;;
46753;SDS011;32500;50.620;3.400;2022-11-15T00:20:54;77.05;;;53.72;;
46753;SDS011;32500;50.620;3.400;2022-11-15T00:23:20;75.15;;;53.70;;
46753;SDS011;32500;50.620;3.400;2022-11-15T00:25:46;75.78;;;53.35;;
46753;SDS011;32500;50.620;3.400;2022-11-15T00:28:12;75.45;;;53.50;;
46753;SDS011;32500;50.620;3.400;2022-11-15T00:30:37;75.15;;;53.22;;
46753;SDS011;32500;50.620;3.400;2022-11-15T00:33:04;75.50;;;53.85;;
46753;SDS011;32500;50.620;3.400;2022-11-15T00:35:33;76.07;;;53.20;;
46753;SDS011;32500;50.620;3.400;2022-11-15T00:37:59;75.15;;;53.72;;
46753;SDS011;32500;50.620;3.400;2022-11-15T00:40:25;74.85;;;53.42;;
46753;SDS011;32500;50.620;3.400;2022-11-15T00:42:51;75.05;;;53.05;;
46753;SDS011;32500;50.620;3.400;2022-11-15T00:45:17;73.75;;;53.30;;
46753;SDS011;32500;50.620;3.400;2022-11-15T00:47:45;73.82;;;53.08;;
46753;SDS011;32500;50.620;3.400;2022-11-15T00:50:12;74.90;;;52.63;;
46753;SDS011;32500;50.620;3.400;2022-11-15T00:52:38;73.22;;;52.72;;
46753;SDS011;32500;50.620;3.400;2022-11-15T00:55:04;74.05;;;52.67;;
46753;SDS011;32500;50.620;3.400;2022-11-15T00:57:30;72.95;;;52.65;;
46753;SDS011;32500;50.620;3.400;2022-11-15T00:59:56;74.32;;;52.75;;
46753;SDS011;32500;50.620;3.400;2022-11-15T01:02:21;74.32;;;53.00;;
46753;SDS011;32500;50.620;3.400;2022-11-15T01:04:47;74.45;;;53.05;;
46753;SDS011;32500;50.620;3.400;2022-11-15T01:07:12;74.47;;;52.90;;
46753;SDS011;32500;50.620;3.400;2022-11-15T01:09:38;74.25;;;52.95;;
46753;SDS011;32500;50.620;3.400;2022-11-15T01:12:04;74.05;;;52.65;;
46753;SDS011;32500;50.620;3.400;2022-11-15T01:14:30;73.85;;;52.92;;
46753;SDS011;32500;50.620;3.400;2022-11-15T01:16:56;74.13;;;52.70;;
46753;SDS011;32500;50.620;3.400;2022-11-15T01:19:21;73.97;;;52.50;;
46753;SDS011;32500;50.620;3.400;2022-11-15T01:21:50;73.43;;;52.78;;
46753;SDS011;32500;50.620;3.400;2022-11-15T01:24:16;73.35;;;52.70;;
46753;SDS011;32500;50.620;3.400;2022-11-15T01:26:42;73.13;;;52.70;;
46753;SDS011;32500;50.620;3.400;2022-11-15T01:29:07;74.72;;;53.13;;
46753;SDS011;32500;50.620;3.400;2022-11-15T01:31:33;74.65;;;53.10;;
46753;SDS011;32500;50.620;3.400;2022-11-15T01:33:58;73.63;;;53.45;;
46753;SDS011;32500;50.620;3.400;2022-11-15T01:36:24;74.50;;;52.47;;
46753;SDS011;32500;50.620;3.400;2022-11-15T01:38:54;74.43;;;52.70;;
46753;SDS011;32500;50.620;3.400;2022-11-15T01:41:21;73.40;;;52.93;;
46753;SDS011;32500;50.620;3.400;2022-11-15T01:43:52;72.65;;;52.08;;
46753;SDS011;32500;50.620;3.400;2022-11-15T01:48:54;73.03;;;52.45;;
46753;SDS011;32500;50.620;3.400;2022-11-15T01:51:26;72.53;;;52.58;;
46753;SDS011;32500;50.620;3.400;2022-11-15T01:53:55;72.85;;;52.70;;
46753;SDS011;32500;50.620;3.400;2022-11-15T01:56:27;72.93;;;52.50;;
46753;SDS011;32500;50.620;3.400;2022-11-15T01:58:55;74.65;;;53.20;;
46753;SDS011;32500;50.620;3.400;2022-11-15T02:01:23;72.53;;;51.95;;
46753;SDS011;32500;50.620;3.400;2022-11-15T02:04:00;72.05;;;52.05;;
46753;SDS011;32500;50.620;3.400;2022-11-15T02:06:30;73.43;;;52.83;;
46753;SDS011;32500;50.620;3.400;2022-11-15T02:08:56;73.35;;;52.25;;
46753;SDS011;32500;50.620;3.400;2022-11-15T02:11:23;73.95;;;52.47;;
46753;SDS011;32500;50.620;3.400;2022-11-15T02:13:49;74.00;;;52.38;;
46753;SDS011;32500;50.620;3.400;2022-11-15T02:33:44;71.75;;;51.70;;
46753;SDS011;32500;50.620;3.400;2022-11-15T02:36:28;72.00;;;51.75;;
46753;SDS011;32500;50.620;3.400;2022-11-15T02:39:07;71.68;;;52.30;;
46753;SDS011;32500;50.620;3.400;2022-11-15T02:41:46;72.38;;;51.80;;
46753;SDS011;32500;50.620;3.400;2022-11-15T02:44:38;71.45;;;51.42;;
46753;SDS011;32500;50.620;3.400;2022-11-15T02:47:09;71.57;;;51.63;;
46753;SDS011;32500;50.620;3.400;2022-11-15T02:49:41;72.47;;;52.13;;
46753;SDS011;32500;50.620;3.400;2022-11-15T02:52:15;71.60;;;52.03;;
46753;SDS011;32500;50.620;3.400;2022-11-15T02:54:41;72.53;;;51.92;;
46753;SDS011;32500;50.620;3.400;2022-11-15T02:57:10;71.72;;;51.75;;
46753;SDS011;32500;50.620;3.400;2022-11-15T03:05:18;71.75;;;51.88;;
46753;SDS011;32500;50.620;3.400;2022-11-15T03:08:10;71.32;;;51.50;;
46753;SDS011;32500;50.620;3.400;2022-11-15T03:11:03;71.90;;;52.05;;
46753;SDS011;32500;50.620;3.400;2022-11-15T03:14:20;71.55;;;52.03;;
46753;SDS011;32500;50.620;3.400;2022-11-15T03:16:30;70.72;;;51.28;;
46753;SDS011;32500;50.620;3.400;2022-11-15T03:19:44;71.30;;;51.65;;
46753;SDS011;32500;50.620;3.400;2022-11-15T03:22:00;71.90;;;51.88;;
46753;SDS011;32500;50.620;3.400;2022-11-15T03:24:29;71.22;;;51.35;;
46753;SDS011;32500;50.620;3.400;2022-11-15T03:26:59;70.63;;;51.45;;
46753;SDS011;32500;50.620;3.400;2022-11-15T03:29:27;72.03;;;51.53;;
46753;SDS011;32500;50.620;3.400;2022-11-15T03:31:58;71.05;;;51.78;;
46753;SDS011;32500;50.620;3.400;2022-11-15T03:34:29;70.63;;;51.00;;
46753;SDS011;32500;50.620;3.400;2022-11-15T03:37:03;71.20;;;51.60;;
46753;SDS011;32500;50.620;3.400;2022-11-15T03:39:30;73.40;;;51.22;;
46753;SDS011;32500;50.620;3.400;2022-11-15T03:42:30;71.65;;;51.47;;
46753;SDS011;32500;50.620;3.400;2022-11-15T03:44:58;70.80;;;51.15;;
46753;SDS011;32500;50.620;3.400;2022-11-15T03:47:42;70.38;;;51.55;;
46753;SDS011;32500;50.620;3.400;2022-11-15T03:50:18;71.43;;;51.90;;
46753;SDS011;32500;50.620;3.400;2022-11-15T03:52:46;70.18;;;50.75;;
46753;SDS011;32500;50.620;3.400;2022-11-15T03:55:14;71.05;;;51.05;;
46753;SDS011;32500;50.620;3.400;2022-11-15T03:57:43;71.53;;;51.83;;
46753;SDS011;32500;50.620;3.400;2022-11-15T04:00:09;70.82;;;51.53;;
46753;SDS011;32500;50.620;3.400;2022-11-15T04:02:36;71.93;;;51.42;;
46753;SDS011;32500;50.620;3.400;2022-11-15T04:05:01;73.97;;;51.92;;
46753;SDS011;32500;50.620;3.400;2022-11-15T04:07:27;70.88;;;51.47;;
46753;SDS011;32500;50.620;3.400;2022-11-15T04:09:53;70.97;;;51.60;;
46753;SDS011;32500;50.620;3.400;2022-11-15T04:12:31;70.15;;;51.70;;
46753;SDS011;32500;50.620;3.400;2022-11-15T04:15:20;70.75;;;51.13;;
46753;SDS011;32500;50.620;3.400;2022-11-15T04:17:53;70.80;;;51.30;;
46753;SDS011;32500;50.620;3.400;2022-11-15T04:20:24;70.00;;;51.03;;
46753;SDS011;32500;50.620;3.400;2022-11-15T04:23:14;70.40;;;50.92;;
46753;SDS011;32500;50.620;3.400;2022-11-15T04:26:03;70.45;;;51.38;;
46753;SDS011;32500;50.620;3.400;2022-11-15T04:28:32;70.75;;;51.55;;
46753;SDS011;32500;50.620;3.400;2022-11-15T04:30:58;71.32;;;51.35;;
46753;SDS011;32500;50.620;3.400;2022-11-15T04:33:23;69.65;;;51.13;;
46753;SDS011;32500;50.620;3.400;2022-11-15T04:35:49;69.68;;;50.78;;
46753;SDS011;32500;50.620;3.400;2022-11-15T04:38:34;69.07;;;50.72;;
46753;SDS011;32500;50.620;3.400;2022-11-15T04:41:00;70.15;;;51.30;;
46753;SDS011;32500;50.620;3.400;2022-11-15T04:43:26;69.75;;;50.70;;
46753;SDS011;32500;50.620;3.400;2022-11-15T04:45:52;69.82;;;51.22;;
46753;SDS011;32500;50.620;3.400;2022-11-15T04:48:17;70.35;;;50.88;;
46753;SDS011;32500;50.620;3.400;2022-11-15T04:50:43;70.47;;;51.13;;
46753;SDS011;32500;50.620;3.400;2022-11-15T04:53:08;69.90;;;51.28;;
46753;SDS011;32500;50.620;3.400;2022-11-15T04:55:34;70.57;;;50.95;;
46753;SDS011;32500;50.620;3.400;2022-11-15T04:58:00;70.97;;;51.20;;
46753;SDS011;32500;50.620;3.400;2022-11-15T05:00:27;70.68;;;50.92;;
46753;SDS011;32500;50.620;3.400;2022-11-15T05:02:53;69.50;;;50.63;;
46753;SDS011;32500;50.620;3.400;2022-11-15T05:05:38;69.30;;;50.50;;
46753;SDS011;32500;50.620;3.400;2022-11-15T05:08:03;69.75;;;50.65;;
46753;SDS011;32500;50.620;3.400;2022-11-15T05:10:29;70.05;;;50.95;;
46753;SDS011;32500;50.620;3.400;2022-11-15T05:12:55;69.95;;;50.97;;
46753;SDS011;32500;50.620;3.400;2022-11-15T05:15:21;69.50;;;50.72;;
46753;SDS011;32500;50.620;3.400;2022-11-15T05:17:46;70.55;;;50.85;;
46753;SDS011;32500;50.620;3.400;2022-11-15T05:20:12;71.30;;;50.90;;
46753;SDS011;32500;50.620;3.400;2022-11-15T05:22:38;70.18;;;50.67;;
46753;SDS011;32500;50.620;3.400;2022-11-15T05:25:05;69.68;;;50.92;;
46753;SDS011;32500;50.620;3.400;2022-11-15T05:27:32;71.63;;;51.03;;
46753;SDS011;32500;50.620;3.400;2022-11-15T05:29:58;70.63;;;50.92;;
46753;SDS011;32500;50.620;3.400;2022-11-15T05:32:24;71.80;;;50.58;;
46753;SDS011;32500;50.620;3.400;2022-11-15T05:34:50;70.43;;;51.05;;
46753;SDS011;32500;50.620;3.400;2022-11-15T05:37:16;70.88;;;50.60;;
46753;SDS011;32500;50.620;3.400;2022-11-15T05:39:42;70.07;;;51.15;;
46753;SDS011;32500;50.620;3.400;2022-11-15T05:42:11;74.15;;;51.53;;
46753;SDS011;32500;50.620;3.400;2022-11-15T05:44:39;73.03;;;51.77;;
46753;SDS011;32500;50.620;3.400;2022-11-15T05:47:13;74.22;;;51.80;;
46753;SDS011;32500;50.620;3.400;2022-11-15T05:49:43;75.13;;;52.25;;
46753;SDS011;32500;50.620;3.400;2022-11-15T05:52:11;79.63;;;52.63;;
46753;SDS011;32500;50.620;3.400;2022-11-15T05:54:41;77.18;;;52.60;;
46753;SDS011;32500;50.620;3.400;2022-11-15T05:57:07;79.75;;;52.70;;
46753;SDS011;32500;50.620;3.400;2022-11-15T05:59:33;77.28;;;52.58;;
46753;SDS011;32500;50.620;3.400;2022-11-15T06:02:00;81.03;;;52.67;;
46753;SDS011;32500;50.620;3.400;2022-11-15T06:04:26;82.93;;;52.75;;
46753;SDS011;32500;50.620;3.400;2022-11-15T06:06:52;79.32;;;53.25;;
46753;SDS011;32500;50.620;3.400;2022-11-15T06:09:17;86.65;;;53.42;;
46753;SDS011;32500;50.620;3.400;2022-11-15T06:11:43;80.05;;;53.60;;
46753;SDS011;32500;50.620;3.400;2022-11-15T06:14:09;84.03;;;54.00;;
46753;SDS011;32500;50.620;3.400;2022-11-15T06:16:34;81.13;;;52.95;;
46753;SDS011;32500;50.620;3.400;2022-11-15T06:19:00;82.88;;;54.47;;
46753;SDS011;32500;50.620;3.400;2022-11-15T06:21:25;86.90;;;53.78;;
46753;SDS011;32500;50.620;3.400;2022-11-15T06:23:53;84.55;;;54.47;;
46753;SDS011;32500;50.620;3.400;2022-11-15T06:26:18;85.03;;;54.58;;
46753;SDS011;32500;50.620;3.400;2022-11-15T06:28:44;82.90;;;53.70;;
46753;SDS011;32500;50.620;3.400;2022-11-15T06:31:10;85.72;;;54.03;;
46753;SDS011;32500;50.620;3.400;2022-11-15T06:33:36;84.32;;;54.13;;
46753;SDS011;32500;50.620;3.400;2022-11-15T06:36:04;86.85;;;53.80;;
46753;SDS011;32500;50.620;3.400;2022-11-15T06:38:31;84.82;;;54.15;;
46753;SDS011;32500;50.620;3.400;2022-11-15T06:41:04;82.70;;;53.53;;
46753;SDS011;32500;50.620;3.400;2022-11-15T06:43:32;82.80;;;53.35;;
46753;SDS011;32500;50.620;3.400;2022-11-15T06:45:58;85.30;;;52.63;;
46753;SDS011;32500;50.620;3.400;2022-11-15T06:48:24;81.75;;;54.17;;
46753;SDS011;32500;50.620;3.400;2022-11-15T06:50:54;82.68;;;53.40;;
46753;SDS011;32500;50.620;3.400;2022-11-15T06:53:21;85.93;;;53.53;;
46753;SDS011;32500;50.620;3.400;2022-11-15T06:55:47;82.47;;;53.65;;
46753;SDS011;32500;50.620;3.400;2022-11-15T06:58:12;82.57;;;54.20;;
46753;SDS011;32500;50.620;3.400;2022-11-15T07:00:38;78.25;;;52.83;;
46753;SDS011;32500;50.620;3.400;2022-11-15T07:03:05;81.57;;;53.13;;
46753;SDS011;32500;50.620;3.400;2022-11-15T07:05:31;81.22;;;54.30;;
46753;SDS011;32500;50.620;3.400;2022-11-15T07:07:57;87.22;;;54.13;;
46753;SDS011;32500;50.620;3.400;2022-11-15T07:10:23;79.57;;;53.00;;
46753;SDS011;32500;50.620;3.400;2022-11-15T07:12:50;84.82;;;53.65;;
46753;SDS011;32500;50.620;3.400;2022-11-15T07:15:17;79.47;;;53.60;;
46753;SDS011;32500;50.620;3.400;2022-11-15T07:17:44;79.90;;;52.95;;
46753;SDS011;32500;50.620;3.400;2022-11-15T07:20:10;80.10;;;53.08;;
46753;SDS011;32500;50.620;3.400;2022-11-15T07:22:36;78.35;;;52.83;;
46753;SDS011;32500;50.620;3.400;2022-11-15T07:25:02;79.80;;;52.92;;
46753;SDS011;32500;50.620;3.400;2022-11-15T07:27:28;76.07;;;52.75;;
46753;SDS011;32500;50.620;3.400;2022-11-15T07:29:53;80.88;;;52.92;;
46753;SDS011;32500;50.620;3.400;2022-11-15T07:32:19;80.93;;;53.05;;
46753;SDS011;32500;50.620;3.400;2022-11-15T07:34:44;76.55;;;52.67;;
46753;SDS011;32500;50.620;3.400;2022-11-15T07:37:11;76.55;;;52.80;;
46753;SDS011;32500;50.620;3.400;2022-11-15T07:39:37;79.57;;;52.83;;
46753;SDS011;32500;50.620;3.400;2022-11-15T07:42:02;79.68;;;52.65;;
46753;SDS011;32500;50.620;3.400;2022-11-15T07:44:46;78.57;;;52.78;;
46753;SDS011;32500;50.620;3.400;2022-11-15T07:47:12;75.28;;;52.58;;
46753;SDS011;32500;50.620;3.400;2022-11-15T07:49:38;76.05;;;52.47;;
46753;SDS011;32500;50.620;3.400;2022-11-15T07:52:03;75.82;;;52.70;;
46753;SDS011;32500;50.620;3.400;2022-11-15T07:54:29;78.55;;;52.80;;
46753;SDS011;32500;50.620;3.400;2022-11-15T07:56:55;77.25;;;52.53;;
46753;SDS011;32500;50.620;3.400;2022-11-15T07:59:20;74.88;;;52.28;;
46753;SDS011;32500;50.620;3.400;2022-11-15T08:01:46;77.20;;;51.97;;
46753;SDS011;32500;50.620;3.400;2022-11-15T08:04:11;74.05;;;51.85;;
46753;SDS011;32500;50.620;3.400;2022-11-15T08:06:37;75.18;;;52.33;;
46753;SDS011;32500;50.620;3.400;2022-11-15T08:09:03;74.65;;;52.58;;
46753;SDS011;32500;50.620;3.400;2022-11-15T08:11:29;73.72;;;51.90;;
46753;SDS011;32500;50.620;3.400;2022-11-15T08:13:54;74.85;;;52.03;;
46753;SDS011;32500;50.620;3.400;2022-11-15T08:16:20;74.15;;;51.60;;
46753;SDS011;32500;50.620;3.400;2022-11-15T08:18:46;74.20;;;52.03;;
46753;SDS011;32500;50.620;3.400;2022-11-15T08:21:17;74.50;;;52.20;;
46753;SDS011;32500;50.620;3.400;2022-11-15T08:23:45;76.00;;;52.20;;
46753;SDS011;32500;50.620;3.400;2022-11-15T08:26:11;74.22;;;51.78;;
46753;SDS011;32500;50.620;3.400;2022-11-15T08:28:37;76.10;;;52.05;;
46753;SDS011;32500;50.620;3.400;2022-11-15T08:31:03;74.03;;;52.10;;
46753;SDS011;32500;50.620;3.400;2022-11-15T08:33:30;76.82;;;52.17;;
46753;SDS011;32500;50.620;3.400;2022-11-15T08:35:57;73.68;;;51.63;;
46753;SDS011;32500;50.620;3.400;2022-11-15T08:38:24;74.20;;;51.85;;
46753;SDS011;32500;50.620;3.400;2022-11-15T08:40:51;74.45;;;51.95;;
46753;SDS011;32500;50.620;3.400;2022-11-15T08:43:18;73.78;;;51.80;;
46753;SDS011;32500;50.620;3.400;2022-11-15T08:45:44;74.38;;;52.13;;
46753;SDS011;32500;50.620;3.400;2022-11-15T08:48:10;74.80;;;51.50;;
46753;SDS011;32500;50.620;3.400;2022-11-15T08:50:35;75.57;;;51.70;;
46753;SDS011;32500;50.620;3.400;2022-11-15T08:53:05;74.95;;;52.13;;
46753;SDS011;32500;50.620;3.400;2022-11-15T08:55:32;72.70;;;51.10;;
46753;SDS011;32500;50.620;3.400;2022-11-15T08:57:57;74.78;;;51.88;;
46753;SDS011;32500;50.620;3.400;2022-11-15T09:00:23;72.35;;;51.28;;
46753;SDS011;32500;50.620;3.400;2022-11-15T09:02:49;72.85;;;51.10;;
46753;SDS011;32500;50.620;3.400;2022-11-15T09:05:14;73.88;;;51.42;;
46753;SDS011;32500;50.620;3.400;2022-11-15T09:07:41;74.03;;;52.05;;
46753;SDS011;32500;50.620;3.400;2022-11-15T09:10:06;76.07;;;51.92;;
46753;SDS011;32500;50.620;3.400;2022-11-15T09:12:32;74.78;;;51.40;;
46753;SDS011;32500;50.620;3.400;2022-11-15T09:14:58;75.63;;;51.15;;
46753;SDS011;32500;50.620;3.400;2022-11-15T09:17:24;71.97;;;51.15;;
46753;SDS011;32500;50.620;3.400;2022-11-15T09:19:49;71.70;;;51.20;;
46753;SDS011;32500;50.620;3.400;2022-11-15T09:22:15;71.32;;;51.15;;
46753;SDS011;32500;50.620;3.400;2022-11-15T09:24:40;73.97;;;51.70;;
46753;SDS011;32500;50.620;3.400;2022-11-15T09:27:06;70.97;;;51.17;;
46753;SDS011;32500;50.620;3.400;2022-11-15T09:29:32;73.43;;;51.92;;
46753;SDS011;32500;50.620;3.400;2022-11-15T09:31:57;74.28;;;51.72;;
46753;SDS011;32500;50.620;3.400;2022-11-15T09:34:23;71.90;;;51.00;;
46753;SDS011;32500;50.620;3.400;2022-11-15T09:36:48;73.88;;;51.47;;
46753;SDS011;32500;50.620;3.400;2022-11-15T09:39:14;72.03;;;51.03;;
46753;SDS011;32500;50.620;3.400;2022-11-15T09:50:08;72.35;;;51.00;;
46753;SDS011;32500;50.620;3.400;2022-11-15T09:52:36;71.05;;;50.83;;
46753;SDS011;32500;50.620;3.400;2022-11-15T09:55:04;71.97;;;50.53;;
46753;SDS011;32500;50.620;3.400;2022-11-15T09:57:33;71.00;;;50.85;;
46753;SDS011;32500;50.620;3.400;2022-11-15T10:00:37;73.63;;;51.25;;
46753;SDS011;32500;50.620;3.400;2022-11-15T10:05:43;74.10;;;51.53;;
46753;SDS011;32500;50.620;3.400;2022-11-15T10:11:04;75.10;;;50.95;;
46753;SDS011;32500;50.620;3.400;2022-11-15T10:13:36;73.65;;;50.88;;
46753;SDS011;32500;50.620;3.400;2022-11-15T10:16:16;73.80;;;51.05;;
46753;SDS011;32500;50.620;3.400;2022-11-15T10:19:26;72.03;;;50.95;;
46753;SDS011;32500;50.620;3.400;2022-11-15T10:24:11;74.47;;;51.17;;
46753;SDS011;32500;50.620;3.400;2022-11-15T10:26:38;71.60;;;51.05;;
46753;SDS011;32500;50.620;3.400;2022-11-15T10:29:10;71.95;;;51.10;;
46753;SDS011;32500;50.620;3.400;2022-11-15T10:31:37;70.93;;;50.75;;
46753;SDS011;32500;50.620;3.400;2022-11-15T10:34:19;71.95;;;51.08;;
46753;SDS011;32500;50.620;3.400;2022-11-15T10:36:47;71.95;;;51.38;;
46753;SDS011;32500;50.620;3.400;2022-11-15T10:39:24;70.53;;;50.63;;
46753;SDS011;32500;50.620;3.400;2022-11-15T10:41:50;72.65;;;51.15;;
46753;SDS011;32500;50.620;3.400;2022-11-15T10:46:47;72.13;;;51.13;;
46753;SDS011;32500;50.620;3.400;2022-11-15T10:49:34;70.90;;;50.83;;
46753;SDS011;32500;50.620;3.400;2022-11-15T10:54:44;71.72;;;51.13;;
46753;SDS011;32500;50.620;3.400;2022-11-15T10:57:16;74.18;;;51.20;;
46753;SDS011;32500;50.620;3.400;2022-11-15T10:59:48;72.53;;;51.05;;
46753;SDS011;32500;50.620;3.400;2022-11-15T11:02:39;73.10;;;50.95;;
46753;SDS011;32500;50.620;3.400;2022-11-15T11:05:31;74.18;;;51.38;;
46753;SDS011;32500;50.620;3.400;2022-11-15T11:08:03;70.67;;;50.70;;
46753;SDS011;32500;50.620;3.400;2022-11-15T11:10:56;73.40;;;50.90;;
46753;SDS011;32500;50.620;3.400;2022-11-15T11:19:18;72.53;;;50.90;;
46753;SDS011;32500;50.620;3.400;2022-11-15T11:22:17;72.97;;;50.85;;
46753;SDS011;32500;50.620;3.400;2022-11-15T11:25:04;72.10;;;50.83;;
46753;SDS011;32500;50.620;3.400;2022-11-15T11:30:14;72.67;;;50.57;;
46753;SDS011;32500;50.620;3.400;2022-11-15T11:46:35;71.93;;;51.03;;
46753;SDS011;32500;50.620;3.400;2022-11-15T11:49:19;72.00;;;50.80;;
46753;SDS011;32500;50.620;3.400;2022-11-15T11:56:53;72.68;;;51.03;;
46753;SDS011;32500;50.620;3.400;2022-11-15T11:59:35;72.75;;;51.17;;
46753;SDS011;32500;50.620;3.400;2022-11-15T12:02:35;71.55;;;50.67;;
46753;SDS011;32500;50.620;3.400;2022-11-15T12:05:05;72.10;;;51.03;;
46753;SDS011;32500;50.620;3.400;2022-11-15T12:07:52;71.32;;;51.10;;
46753;SDS011;32500;50.620;3.400;2022-11-15T12:15:41;71.30;;;50.67;;
46753;SDS011;32500;50.620;3.400;2022-11-15T12:18:14;71.63;;;50.47;;
46753;SDS011;32500;50.620;3.400;2022-11-15T12:20:49;71.17;;;50.77;;
46753;SDS011;32500;50.620;3.400;2022-11-15T12:23:21;73.35;;;50.85;;
46753;SDS011;32500;50.620;3.400;2022-11-15T12:25:55;71.90;;;50.50;;
46753;SDS011;32500;50.620;3.400;2022-11-15T12:33:54;71.20;;;50.90;;
46753;SDS011;32500;50.620;3.400;2022-11-15T12:41:14;73.30;;;50.80;;
46753;SDS011;32500;50.620;3.400;2022-11-15T12:43:44;71.28;;;50.45;;
46753;SDS011;32500;50.620;3.400;2022-11-15T12:46:18;71.75;;;51.00;;
46753;SDS011;32500;50.620;3.400;2022-11-15T13:02:33;70.72;;;50.78;;
46753;SDS011;32500;50.620;3.400;2022-11-15T13:17:44;70.93;;;50.90;;
46753;SDS011;32500;50.620;3.400;2022-11-15T13:23:18;71.07;;;50.90;;
46753;SDS011;32500;50.620;3.400;2022-11-15T13:25:45;73.00;;;51.40;;
46753;SDS011;32500;50.620;3.400;2022-11-15T13:33:53;71.43;;;50.42;;
46753;SDS011;32500;50.620;3.400;2022-11-15T13:36:27;71.20;;;50.65;;
46753;SDS011;32500;50.620;3.400;2022-11-15T13:41:56;70.15;;;50.45;;
46753;SDS011;32500;50.620;3.400;2022-11-15T13:44:24;70.43;;;50.50;;
46753;SDS011;32500;50.620;3.400;2022-11-15T13:49:40;71.07;;;50.80;;
46753;SDS011;32500;50.620;3.400;2022-11-15T13:52:08;71.03;;;50.67;;
46753;SDS011;32500;50.620;3.400;2022-11-15T13:54:40;70.13;;;50.22;;
46753;SDS011;32500;50.620;3.400;2022-11-15T13:59:47;70.70;;;50.45;;
46753;SDS011;32500;50.620;3.400;2022-11-15T14:02:20;70.00;;;50.75;;
46753;SDS011;32500;50.620;3.400;2022-11-15T14:04:51;72.28;;;50.67;;
46753;SDS011;32500;50.620;3.400;2022-11-15T14:07:21;70.80;;;50.50;;
46753;SDS011;32500;50.620;3.400;2022-11-15T14:09:49;70.35;;;50.53;;
46753;SDS011;32500;50.620;3.400;2022-11-15T14:14:52;70.43;;;50.13;;
46753;SDS011;32500;50.620;3.400;2022-11-15T14:17:37;70.05;;;50.63;;
46753;SDS011;32500;50.620;3.400;2022-11-15T14:20:19;70.15;;;50.45;;
46753;SDS011;32500;50.620;3.400;2022-11-15T14:23:00;70.65;;;50.38;;
46753;SDS011;32500;50.620;3.400;2022-11-15T14:25:53;70.07;;;50.70;;
46753;SDS011;32500;50.620;3.400;2022-11-15T14:30:48;69.47;;;50.33;;
46753;SDS011;32500;50.620;3.400;2022-11-15T14:33:32;69.80;;;50.47;;
46753;SDS011;32500;50.620;3.400;2022-11-15T14:36:32;69.90;;;50.13;;
46753;SDS011;32500;50.620;3.400;2022-11-15T14:43:46;70.10;;;50.42;;
46753;SDS011;32500;50.620;3.400;2022-11-15T14:46:12;70.47;;;50.33;;
46753;SDS011;32500;50.620;3.400;2022-11-15T14:48:37;70.20;;;50.42;;
46753;SDS011;32500;50.620;3.400;2022-11-15T14:51:03;70.45;;;50.30;;
46753;SDS011;32500;50.620;3.400;2022-11-15T14:53:36;69.53;;;50.25;;
46753;SDS011;32500;50.620;3.400;2022-11-15T14:56:01;72.45;;;50.40;;
46753;SDS011;32500;50.620;3.400;2022-11-15T14:58:27;70.75;;;50.83;;
46753;SDS011;32500;50.620;3.400;2022-11-15T15:00:53;70.72;;;50.47;;
46753;SDS011;32500;50.620;3.400;2022-11-15T15:03:18;69.53;;;50.20;;
46753;SDS011;32500;50.620;3.400;2022-11-15T15:05:44;70.32;;;51.13;;
46753;SDS011;32500;50.620;3.400;2022-11-15T15:08:10;71.47;;;51.30;;
46753;SDS011;32500;50.620;3.400;2022-11-15T15:10:37;70.90;;;51.20;;
46753;SDS011;32500;50.620;3.400;2022-11-15T15:13:05;72.35;;;51.63;;
46753;SDS011;32500;50.620;3.400;2022-11-15T15:15:36;70.00;;;50.30;;
46753;SDS011;32500;50.620;3.400;2022-11-15T15:18:03;70.50;;;50.78;;
46753;SDS011;32500;50.620;3.400;2022-11-15T15:20:30;72.35;;;50.95;;
46753;SDS011;32500;50.620;3.400;2022-11-15T15:22:56;71.82;;;50.55;;
46753;SDS011;32500;50.620;3.400;2022-11-15T15:25:30;70.57;;;50.35;;
46753;SDS011;32500;50.620;3.400;2022-11-15T15:27:57;69.18;;;50.53;;
46753;SDS011;32500;50.620;3.400;2022-11-15T15:30:24;73.03;;;51.92;;
46753;SDS011;32500;50.620;3.400;2022-11-15T15:32:50;71.57;;;51.22;;
46753;SDS011;32500;50.620;3.400;2022-11-15T15:35:16;71.15;;;51.85;;
46753;SDS011;32500;50.620;3.400;2022-11-15T15:37:43;72.32;;;51.10;;
46753;SDS011;32500;50.620;3.400;2022-11-15T15:42:38;69.97;;;50.83;;
46753;SDS011;32500;50.620;3.400;2022-11-15T15:45:03;71.10;;;51.28;;
46753;SDS011;32500;50.620;3.400;2022-11-15T15:47:30;70.18;;;51.08;;
46753;SDS011;32500;50.620;3.400;2022-11-15T15:49:55;70.18;;;51.13;;
46753;SDS011;32500;50.620;3.400;2022-11-15T15:52:21;71.95;;;51.38;;
46753;SDS011;32500;50.620;3.400;2022-11-15T15:54:46;71.05;;;51.13;;
46753;SDS011;32500;50.620;3.400;2022-11-15T15:57:13;71.05;;;51.65;;
46753;SDS011;32500;50.620;3.400;2022-11-15T15:59:39;70.72;;;50.88;;
46753;SDS011;32500;50.620;3.400;2022-11-15T16:02:04;70.72;;;51.63;;
46753;SDS011;32500;50.620;3.400;2022-11-15T16:04:30;70.95;;;51.38;;
46753;SDS011;32500;50.620;3.400;2022-11-15T16:07:00;69.55;;;50.78;;
46753;SDS011;32500;50.620;3.400;2022-11-15T16:09:26;70.72;;;51.00;;
46753;SDS011;32500;50.620;3.400;2022-11-15T16:12:10;70.72;;;51.30;;
46753;SDS011;32500;50.620;3.400;2022-11-15T16:14:36;70.38;;;51.25;;
46753;SDS011;32500;50.620;3.400;2022-11-15T16:17:01;71.63;;;51.25;;
46753;SDS011;32500;50.620;3.400;2022-11-15T16:19:30;69.93;;;50.72;;
46753;SDS011;32500;50.620;3.400;2022-11-15T16:21:56;70.25;;;51.25;;
46753;SDS011;32500;50.620;3.400;2022-11-15T16:24:22;69.78;;;50.95;;
46753;SDS011;32500;50.620;3.400;2022-11-15T16:26:48;73.05;;;51.00;;
46753;SDS011;32500;50.620;3.400;2022-11-15T16:29:15;72.22;;;51.33;;
46753;SDS011;32500;50.620;3.400;2022-11-15T16:31:41;69.78;;;51.13;;
46753;SDS011;32500;50.620;3.400;2022-11-15T16:34:08;69.82;;;51.25;;
46753;SDS011;32500;50.620;3.400;2022-11-15T16:36:34;70.63;;;51.15;;
46753;SDS011;32500;50.620;3.400;2022-11-15T16:39:00;70.25;;;51.22;;
46753;SDS011;32500;50.620;3.400;2022-11-15T16:41:29;71.07;;;51.67;;
46753;SDS011;32500;50.620;3.400;2022-11-15T16:43:54;71.15;;;51.55;;
46753;SDS011;32500;50.620;3.400;2022-11-15T16:46:21;71.13;;;51.60;;
46753;SDS011;32500;50.620;3.400;2022-11-15T16:48:48;70.28;;;51.13;;
46753;SDS011;32500;50.620;3.400;2022-11-15T16:51:14;70.60;;;51.17;;
46753;SDS011;32500;50.620;3.400;2022-11-15T16:53:40;76.07;;;50.95;;
46753;SDS011;32500;50.620;3.400;2022-11-15T16:56:22;72.05;;;51.38;;
46753;SDS011;32500;50.620;3.400;2022-11-15T16:58:53;69.95;;;51.10;;
46753;SDS011;32500;50.620;3.400;2022-11-15T17:01:36;70.60;;;51.28;;